VLG8EQ LEBL-LIRQ
Flight info
| Callsign | VLG8EQ |
|---|---|
| Flight time | N/A |
| Altitude | 34000 |
| Route | AGENA DCT BODEQ DCT LUMAS DCT UNANA DCT STP DCT RAPED DCT PIGOS DCT EKSID DCT NOSTA DCT EGHIN DCT KALMO DCT MIVKI M730 BEROK Y138 GAPMI |
| Aircraft | A20N/M-SDE2E3FGHIRWXY/LB1 |
Departure
| Time | N/A |
|---|---|
| Airport | Josep Tarradellas Barcelona-El Prat Airport (LEBL) |
Arrival
| Time | 2026-04-30 18:45 |
|---|---|
| Airport | Florence Airport, Peretola (LIRQ) |
| Time | Latitude | Longitude | Altitude | Speed | Heading |
|---|---|---|---|---|---|
| 2026-04-30 17:39 | 41.52661 | 3.38035 | 28259 ft | 462 kts | 75° |
| 2026-04-30 17:41 | 41.58281 | 3.72093 | 31337 ft | 473 kts | 76° |
| 2026-04-30 17:42 | 41.59676 | 3.80660 | 32044 ft | 473 kts | 76° |
| 2026-04-30 17:42 | 41.61753 | 3.93503 | 32952 ft | 476 kts | 76° |
| 2026-04-30 17:43 | 41.63142 | 4.02134 | 33475 ft | 479 kts | 76° |
| 2026-04-30 17:44 | 41.65232 | 4.15201 | 34060 ft | 484 kts | 76° |
| 2026-04-30 17:44 | 41.67317 | 4.28346 | 34069 ft | 484 kts | 76° |
| 2026-04-30 17:47 | 41.75044 | 4.67256 | 34078 ft | 477 kts | 55° |
| 2026-04-30 17:48 | 41.83580 | 4.80424 | 34090 ft | 465 kts | 38° |
| 2026-04-30 17:48 | 41.90511 | 4.89460 | 34093 ft | 465 kts | 38° |
| 2026-04-30 17:50 | 42.08873 | 5.13870 | 34100 ft | 464 kts | 38° |
| 2026-04-30 17:52 | 42.22518 | 5.32177 | 34109 ft | 461 kts | 38° |
| 2026-04-30 17:54 | 42.42733 | 5.59514 | 34127 ft | 457 kts | 39° |
| 2026-04-30 17:56 | 42.60500 | 5.83756 | 34143 ft | 451 kts | 39° |
| 2026-04-30 17:58 | 42.73676 | 6.01876 | 34137 ft | 450 kts | 39° |
| 2026-04-30 18:00 | 42.91541 | 6.25144 | 34148 ft | 441 kts | 34° |
| 2026-04-30 18:01 | 43.03265 | 6.38584 | 34139 ft | 440 kts | 35° |
| 2026-04-30 18:02 | 43.17263 | 6.54754 | 34145 ft | 438 kts | 36° |
| 2026-04-30 18:04 | 43.29238 | 6.73942 | 34153 ft | 444 kts | 51° |
| 2026-04-30 18:06 | 43.43579 | 7.01265 | 34167 ft | 438 kts | 51° |
| 2026-04-30 18:08 | 43.55933 | 7.24976 | 34184 ft | 434 kts | 51° |
| 2026-04-30 18:10 | 43.69941 | 7.52095 | 34195 ft | 433 kts | 51° |
| 2026-04-30 18:11 | 43.82087 | 7.75823 | 34200 ft | 432 kts | 51° |
| 2026-04-30 18:13 | 43.90717 | 7.92726 | 34192 ft | 430 kts | 51° |
| 2026-04-30 18:14 | 43.99352 | 8.09732 | 34192 ft | 430 kts | 51° |
| 2026-04-30 18:15 | 44.07557 | 8.32032 | 34177 ft | 438 kts | 69° |
| 2026-04-30 18:16 | 44.10815 | 8.48382 | 34176 ft | 440 kts | 70° |
| 2026-04-30 18:17 | 44.12427 | 8.56588 | 34174 ft | 439 kts | 70° |
| 2026-04-30 18:18 | 44.14837 | 8.68870 | 34177 ft | 439 kts | 71° |
| 2026-04-30 18:18 | 44.16383 | 8.76783 | 34172 ft | 439 kts | 71° |
| 2026-04-30 18:19 | 44.18001 | 8.85101 | 33932 ft | 439 kts | 70° |
| 2026-04-30 18:19 | 44.18789 | 8.89165 | 33648 ft | 437 kts | 70° |
| 2026-04-30 18:19 | 44.19581 | 8.93258 | 33250 ft | 434 kts | 70° |
| 2026-04-30 18:19 | 44.20360 | 8.97299 | 32721 ft | 432 kts | 70° |
| 2026-04-30 18:20 | 44.21135 | 9.01318 | 32120 ft | 432 kts | 70° |
| 2026-04-30 18:20 | 44.21899 | 9.05287 | 31484 ft | 433 kts | 70° |
| 2026-04-30 18:20 | 44.22681 | 9.09358 | 30813 ft | 434 kts | 70° |
| 2026-04-30 18:20 | 44.23461 | 9.13430 | 30093 ft | 435 kts | 70° |
| 2026-04-30 18:21 | 44.24237 | 9.17484 | 29365 ft | 435 kts | 70° |
| 2026-04-30 18:21 | 44.25017 | 9.21570 | 28806 ft | 431 kts | 70° |
| 2026-04-30 18:21 | 44.25777 | 9.25573 | 28354 ft | 425 kts | 70° |
| 2026-04-30 18:21 | 44.26519 | 9.29483 | 27889 ft | 419 kts | 70° |
| 2026-04-30 18:22 | 44.27266 | 9.33431 | 27416 ft | 414 kts | 70° |
| 2026-04-30 18:22 | 44.28719 | 9.41107 | 26497 ft | 405 kts | 70° |
| 2026-04-30 18:22 | 44.29437 | 9.44912 | 26037 ft | 400 kts | 70° |
| 2026-04-30 18:23 | 44.30129 | 9.48600 | 25594 ft | 396 kts | 70° |
| 2026-04-30 18:23 | 44.30826 | 9.52315 | 25140 ft | 392 kts | 70° |
| 2026-04-30 18:23 | 44.31474 | 9.56016 | 24670 ft | 392 kts | 75° |
| 2026-04-30 18:23 | 44.31675 | 9.59787 | 24213 ft | 395 kts | 86° |
| 2026-04-30 18:24 | 44.30618 | 9.67308 | 23273 ft | 397 kts | 101° |
| 2026-04-30 18:24 | 44.29841 | 9.71028 | 22818 ft | 394 kts | 102° |
| 2026-04-30 18:24 | 44.29069 | 9.74699 | 22359 ft | 391 kts | 102° |
| 2026-04-30 18:25 | 44.28318 | 9.78308 | 21909 ft | 388 kts | 101° |
| 2026-04-30 18:25 | 44.26833 | 9.85519 | 20979 ft | 383 kts | 101° |
| 2026-04-30 18:25 | 44.26106 | 9.89064 | 20523 ft | 381 kts | 101° |
| 2026-04-30 18:26 | 44.24661 | 9.96104 | 19603 ft | 376 kts | 101° |
| 2026-04-30 18:26 | 44.23933 | 9.99645 | 19140 ft | 374 kts | 101° |
| 2026-04-30 18:26 | 44.23221 | 10.03091 | 18683 ft | 372 kts | 102° |
| 2026-04-30 18:27 | 44.21797 | 10.09973 | 17778 ft | 368 kts | 102° |
| 2026-04-30 18:27 | 44.21081 | 10.13414 | 17317 ft | 366 kts | 102° |
| 2026-04-30 18:28 | 44.19672 | 10.20194 | 16392 ft | 363 kts | 102° |
| 2026-04-30 18:28 | 44.18969 | 10.23567 | 15917 ft | 361 kts | 102° |
| 2026-04-30 18:28 | 44.17574 | 10.30233 | 15014 ft | 356 kts | 102° |
| 2026-04-30 18:29 | 44.16814 | 10.33497 | 14561 ft | 355 kts | 108° |
| 2026-04-30 18:29 | 44.12643 | 10.41967 | 13403 ft | 346 kts | 126° |
| 2026-04-30 18:30 | 44.09758 | 10.46840 | 13318 ft | 312 kts | 125° |
| 2026-04-30 18:30 | 44.07042 | 10.51494 | 13212 ft | 309 kts | 126° |
| 2026-04-30 18:31 | 44.05551 | 10.53670 | 13176 ft | 312 kts | 133° |
| 2026-04-30 18:31 | 44.02230 | 10.57530 | 12525 ft | 308 kts | 137° |
| 2026-04-30 18:32 | 43.98968 | 10.61196 | 11430 ft | 299 kts | 137° |
| 2026-04-30 18:32 | 43.97341 | 10.63035 | 10955 ft | 299 kts | 137° |
| 2026-04-30 18:32 | 43.94146 | 10.66649 | 10212 ft | 293 kts | 138° |
| 2026-04-30 18:33 | 43.92565 | 10.68437 | 9839 ft | 291 kts | 138° |
| 2026-04-30 18:33 | 43.90213 | 10.71096 | 9285 ft | 288 kts | 137° |
| 2026-04-30 18:34 | 43.89240 | 10.72200 | 9073 ft | 286 kts | 138° |
| 2026-04-30 18:34 | 43.86140 | 10.75698 | 8134 ft | 280 kts | 138° |
| 2026-04-30 18:34 | 43.84629 | 10.77400 | 7730 ft | 277 kts | 138° |
| 2026-04-30 18:35 | 43.83167 | 10.79048 | 7369 ft | 275 kts | 138° |
| 2026-04-30 18:35 | 43.81684 | 10.80716 | 7053 ft | 274 kts | 137° |
| 2026-04-30 18:35 | 43.80211 | 10.82373 | 6808 ft | 273 kts | 137° |
| 2026-04-30 18:36 | 43.77249 | 10.85704 | 6039 ft | 272 kts | 136° |
| 2026-04-30 18:36 | 43.75795 | 10.87345 | 5650 ft | 269 kts | 136° |
| 2026-04-30 18:36 | 43.72963 | 10.90522 | 4703 ft | 252 kts | 136° |
| 2026-04-30 18:37 | 43.71643 | 10.92002 | 4328 ft | 241 kts | 135° |
| 2026-04-30 18:37 | 43.70338 | 10.93467 | 3985 ft | 235 kts | 135° |
| 2026-04-30 18:37 | 43.69091 | 10.94865 | 3650 ft | 225 kts | 135° |
| 2026-04-30 18:37 | 43.67912 | 10.96199 | 3336 ft | 215 kts | 131° |
| 2026-04-30 18:38 | 43.67186 | 10.97828 | 3094 ft | 185 kts | 93° |
| 2026-04-30 18:38 | 43.67359 | 10.99481 | 3000 ft | 169 kts | 61° |
| 2026-04-30 18:38 | 43.68063 | 11.00753 | 3005 ft | 166 kts | 45° |
| 2026-04-30 18:38 | 43.68882 | 11.01892 | 2999 ft | 165 kts | 44° |
| 2026-04-30 18:39 | 43.69681 | 11.03028 | 2995 ft | 165 kts | 45° |
| 2026-04-30 18:39 | 43.70472 | 11.04201 | 2988 ft | 165 kts | 46° |
| 2026-04-30 18:39 | 43.71247 | 11.05386 | 2851 ft | 166 kts | 46° |
| 2026-04-30 18:39 | 43.72004 | 11.06558 | 2630 ft | 165 kts | 46° |
| 2026-04-30 18:40 | 43.72752 | 11.07722 | 2415 ft | 165 kts | 47° |
| 2026-04-30 18:40 | 43.73521 | 11.08917 | 2201 ft | 166 kts | 47° |
| 2026-04-30 18:40 | 43.74289 | 11.10110 | 1976 ft | 165 kts | 46° |
| 2026-04-30 18:40 | 43.75026 | 11.11253 | 1781 ft | 149 kts | 47° |
| 2026-04-30 18:41 | 43.75687 | 11.12279 | 1570 ft | 135 kts | 47° |
| 2026-04-30 18:41 | 43.76296 | 11.13221 | 1382 ft | 130 kts | 47° |
| 2026-04-30 18:41 | 43.76895 | 11.14149 | 1216 ft | 130 kts | 46° |
| 2026-04-30 18:41 | 43.77496 | 11.15081 | 1057 ft | 130 kts | 44° |
| 2026-04-30 18:42 | 43.78097 | 11.16010 | 894 ft | 129 kts | 47° |
| 2026-04-30 18:42 | 43.79306 | 11.17857 | 518 ft | 129 kts | 45° |
| 2026-04-30 18:42 | 43.79892 | 11.18782 | 346 ft | 127 kts | 46° |
| 2026-04-30 18:45 | 43.80834 | 11.20239 | 136 ft | 33 kts | 227° |
| 2026-04-30 18:45 | 43.80704 | 11.20050 | 135 ft | 21 kts | 214° |
| 2026-04-30 18:45 | 43.80559 | 11.19993 | 134 ft | 21 kts | 193° |
| 2026-04-30 18:46 | 43.80441 | 11.19953 | 134 ft | 12 kts | 194° |
| 2026-04-30 18:46 | 43.80394 | 11.19932 | 134 ft | 0 kts | 168° |
| 2026-04-30 18:46 | 43.80349 | 11.19963 | 134 ft | 14 kts | 162° |
| 2026-04-30 18:46 | 43.80301 | 11.19967 | 134 ft | 2 kts | 184° |
| 2026-04-30 18:47 | 43.80293 | 11.19966 | 134 ft | 0 kts | 184° |